Time;durP1;ratioP1;P1;durP2;ratioP2;P2;SDS_P1;SDS_P2;PMS_P1;PMS_P2;Temp;Humidity;BMP_temperature;BMP_pressure;BME280_temperature;BME280_humidity;BME280_pressure;Samples;Min_cycle;Max_cycle;Signal;HPM_P1;HPM_P2
2022/07/21 00:01:55;;;;;;;5.50;5.00;;;;;;;;;;5101191;28;24535;-45
2022/07/21 00:04:20;;;;;;;5.60;5.20;;;;;;;;;;5094308;28;24990;-45
2022/07/21 00:06:46;;;;;;;5.50;4.90;;;;;;;;;;5109731;27;24990;-45
2022/07/21 00:09:12;;;;;;;5.18;4.60;;;;;;;;;;5105830;28;24983;-51
2022/07/21 00:11:38;;;;;;;5.10;4.70;;;;;;;;;;5093204;28;24505;-47
2022/07/21 00:14:03;;;;;;;5.20;4.70;;;;;;;;;;5099075;28;24571;-45
2022/07/21 00:16:29;;;;;;;5.55;5.05;;;;;;;;;;5090259;27;24856;-45
2022/07/21 00:18:54;;;;;;;5.10;4.70;;;;;;;;;;5103403;28;25069;-45
2022/07/21 00:21:19;;;;;;;4.93;4.53;;;;;;;;;;5092450;28;24433;-45
2022/07/21 00:23:44;;;;;;;9.17;5.60;;;;;;;;;;5103666;28;24429;-45
2022/07/21 00:26:10;;;;;;;5.50;5.00;;;;;;;;;;5101872;28;24425;-45
2022/07/21 00:28:35;;;;;;;5.73;5.23;;;;;;;;;;5094460;28;24900;-45
2022/07/21 00:31:00;;;;;;;5.50;4.78;;;;;;;;;;5093211;28;25163;-45
2022/07/21 00:33:25;;;;;;;5.43;4.97;;;;;;;;;;5097767;28;24425;-46
2022/07/21 00:35:50;;;;;;;5.10;4.70;;;;;;;;;;5102647;28;24517;-46
2022/07/21 00:38:15;;;;;;;5.30;4.80;;;;;;;;;;5093683;28;24502;-45
2022/07/21 00:40:41;;;;;;;5.18;4.70;;;;;;;;;;5099629;28;24773;-45
2022/07/21 00:43:06;;;;;;;5.97;5.37;;;;;;;;;;5095810;28;24440;-46
2022/07/21 00:45:31;;;;;;;6.30;5.37;;;;;;;;;;5092931;27;24414;-46
2022/07/21 00:47:56;;;;;;;5.70;5.20;;;;;;;;;;5098353;28;24511;-46
2022/07/21 00:50:21;;;;;;;6.28;5.68;;;;;;;;;;5091070;28;25511;-45
2022/07/21 00:52:47;;;;;;;6.20;5.40;;;;;;;;;;5097534;27;24511;-46
2022/07/21 00:55:14;;;;;;;4.90;4.40;;;;;;;;;;5096188;27;24399;-45
2022/07/21 00:57:39;;;;;;;5.10;4.60;;;;;;;;;;5097690;27;24437;-45
2022/07/21 01:00:06;;;;;;;5.45;4.90;;;;;;;;;;5096760;27;24421;-46
2022/07/21 01:02:35;;;;;;;5.82;5.22;;;;;;;;;;5099537;27;24426;-45
2022/07/21 01:05:00;;;;;;;5.10;4.70;;;;;;;;;;5093472;27;24444;-45
2022/07/21 01:07:25;;;;;;;5.30;4.80;;;;;;;;;;5092175;27;24951;-45
2022/07/21 01:09:51;;;;;;;7.68;5.90;;;;;;;;;;5102466;27;24513;-45
2022/07/21 01:12:16;;;;;;;5.80;5.30;;;;;;;;;;5103687;27;24437;-45
2022/07/21 01:14:41;;;;;;;5.70;5.20;;;;;;;;;;5092351;27;24504;-46
2022/07/21 01:17:06;;;;;;;5.40;4.90;;;;;;;;;;5091972;27;24429;-46
2022/07/21 01:19:31;;;;;;;5.80;5.20;;;;;;;;;;5097420;27;24795;-46
2022/07/21 01:21:57;;;;;;;5.43;5.03;;;;;;;;;;5096986;27;24506;-46
2022/07/21 01:24:22;;;;;;;6.10;5.50;;;;;;;;;;5094434;28;25104;-46
2022/07/21 01:26:48;;;;;;;6.10;5.50;;;;;;;;;;5101772;28;24997;-46
2022/07/21 01:29:14;;;;;;;5.88;5.38;;;;;;;;;;5105707;28;24425;-45
2022/07/21 01:31:40;;;;;;;5.40;5.00;;;;;;;;;;5099323;28;24428;-46
2022/07/21 01:34:06;;;;;;;5.30;4.63;;;;;;;;;;5096365;28;24456;-46
2022/07/21 01:36:31;;;;;;;4.60;4.20;;;;;;;;;;5102864;28;24967;-46
2022/07/21 01:41:40;;;;;;;4.93;4.53;;;;;;;;;;5101678;27;24506;-46
2022/07/21 01:44:07;;;;;;;4.78;4.47;;;;;;;;;;5092363;27;25086;-46
2022/07/21 01:46:34;;;;;;;5.47;5.07;;;;;;;;;;5099907;28;24516;-47
2022/07/21 01:48:59;;;;;;;6.18;5.40;;;;;;;;;;5095174;28;24495;-46
2022/07/21 01:51:24;;;;;;;5.90;5.40;;;;;;;;;;5097210;28;24786;-46
2022/07/21 01:53:50;;;;;;;6.10;5.60;;;;;;;;;;5104078;28;24772;-46
2022/07/21 01:56:18;;;;;;;5.05;4.55;;;;;;;;;;5089088;28;24471;-46
2022/07/21 01:58:43;;;;;;;5.85;5.35;;;;;;;;;;5088841;28;25257;-46
2022/07/21 02:01:08;;;;;;;4.95;4.45;;;;;;;;;;5094032;28;25192;-46
2022/07/21 02:03:34;;;;;;;7.00;4.70;;;;;;;;;;5092153;28;24457;-46
2022/07/21 02:06:00;;;;;;;6.70;5.33;;;;;;;;;;5096197;28;24551;-46
2022/07/21 02:08:26;;;;;;;5.43;4.93;;;;;;;;;;5101578;28;24410;-46
2022/07/21 02:10:51;;;;;;;5.50;5.00;;;;;;;;;;5102629;28;24525;-46
2022/07/21 02:13:16;;;;;;;5.68;5.10;;;;;;;;;;5086333;27;24418;-46
2022/07/21 02:15:41;;;;;;;6.00;5.40;;;;;;;;;;5101733;27;24464;-46
2022/07/21 02:18:06;;;;;;;7.38;5.50;;;;;;;;;;5094912;27;24982;-47
2022/07/21 02:20:31;;;;;;;4.95;4.55;;;;;;;;;;5097083;28;24427;-45
2022/07/21 02:22:56;;;;;;;5.18;4.68;;;;;;;;;;5091213;28;24453;-46
2022/07/21 02:25:22;;;;;;;5.40;4.90;;;;;;;;;;5089262;28;24983;-46
2022/07/21 02:27:47;;;;;;;5.27;4.77;;;;;;;;;;5086878;28;24428;-46
2022/07/21 02:30:13;;;;;;;5.33;4.83;;;;;;;;;;5105143;28;24994;-47
2022/07/21 02:32:38;;;;;;;5.70;5.00;;;;;;;;;;5094305;28;24414;-46
2022/07/21 02:35:03;;;;;;;5.53;5.03;;;;;;;;;;5090146;28;24414;-46
2022/07/21 02:37:28;;;;;;;5.50;4.70;;;;;;;;;;5094817;28;24780;-46
2022/07/21 02:39:54;;;;;;;4.70;4.40;;;;;;;;;;5093297;28;24437;-46
2022/07/21 02:42:19;;;;;;;5.37;4.87;;;;;;;;;;5095932;27;24444;-46
2022/07/21 02:44:44;;;;;;;5.20;4.80;;;;;;;;;;5098352;28;24426;-46
2022/07/21 02:47:09;;;;;;;5.20;4.70;;;;;;;;;;5096508;28;24425;-46
2022/07/21 02:49:34;;;;;;;5.45;5.00;;;;;;;;;;5088758;28;24430;-45
2022/07/21 02:51:59;;;;;;;4.93;4.43;;;;;;;;;;5098490;28;25080;-46
2022/07/21 02:54:24;;;;;;;5.07;4.60;;;;;;;;;;5094897;28;24425;-46
2022/07/21 02:56:50;;;;;;;5.13;4.72;;;;;;;;;;5099014;28;24406;-46
2022/07/21 02:59:15;;;;;;;4.85;4.45;;;;;;;;;;5094816;28;24512;-46
2022/07/21 03:01:40;;;;;;;5.00;4.60;;;;;;;;;;5094646;28;24480;-46
2022/07/21 03:04:05;;;;;;;4.70;4.30;;;;;;;;;;5088934;28;25213;-46
2022/07/21 03:06:30;;;;;;;5.20;4.80;;;;;;;;;;5097995;28;24424;-46
2022/07/21 03:08:55;;;;;;;5.57;5.05;;;;;;;;;;5096366;28;25003;-46
2022/07/21 03:11:21;;;;;;;7.30;6.60;;;;;;;;;;5096872;28;24415;-46
2022/07/21 03:13:46;;;;;;;8.13;7.33;;;;;;;;;;5089063;28;24536;-48
2022/07/21 03:16:11;;;;;;;7.13;6.43;;;;;;;;;;5097480;28;24437;-46
2022/07/21 03:18:36;;;;;;;7.03;6.43;;;;;;;;;;5101522;28;24433;-46
2022/07/21 03:21:01;;;;;;;7.13;6.03;;;;;;;;;;5098880;28;24446;-46
2022/07/21 03:23:26;;;;;;;8.53;6.80;;;;;;;;;;5093148;28;24437;-45
2022/07/21 03:25:52;;;;;;;8.50;7.70;;;;;;;;;;5095565;28;24954;-46
2022/07/21 03:28:17;;;;;;;7.90;7.10;;;;;;;;;;5094308;28;24426;-46
2022/07/21 03:30:42;;;;;;;7.97;7.27;;;;;;;;;;5100336;28;24482;-45
2022/07/21 03:33:07;;;;;;;8.80;8.00;;;;;;;;;;5099479;28;24410;-46
2022/07/21 03:35:35;;;;;;;9.50;8.70;;;;;;;;;;5102099;28;24965;-46
2022/07/21 03:38:00;;;;;;;12.80;9.38;;;;;;;;;;5098535;28;24800;-46
2022/07/21 03:40:27;;;;;;;10.47;9.47;;;;;;;;;;5086356;28;25012;-47
2022/07/21 03:42:53;;;;;;;12.23;11.02;;;;;;;;;;5087324;28;24576;-46
2022/07/21 03:45:18;;;;;;;10.18;9.27;;;;;;;;;;5094681;28;24433;-46
2022/07/21 03:47:44;;;;;;;8.80;7.90;;;;;;;;;;5099092;27;24534;-46
2022/07/21 03:50:11;;;;;;;7.83;7.13;;;;;;;;;;5094669;28;24449;-46
2022/07/21 03:52:36;;;;;;;7.30;6.60;;;;;;;;;;5101621;28;24546;-46
2022/07/21 03:55:08;;;;;;;8.13;7.32;;;;;;;;;;5091086;28;24421;-46
2022/07/21 03:57:37;;;;;;;8.20;7.50;;;;;;;;;;5096971;28;24538;-46
2022/07/21 04:00:03;;;;;;;8.93;8.13;;;;;;;;;;5095392;28;24485;-46
2022/07/21 04:02:28;;;;;;;8.30;7.50;;;;;;;;;;5098897;28;24475;-46
2022/07/21 04:04:54;;;;;;;9.00;8.20;;;;;;;;;;5090264;28;24796;-46
2022/07/21 04:07:19;;;;;;;8.67;7.97;;;;;;;;;;5097431;28;24497;-46
2022/07/21 04:09:44;;;;;;;7.93;7.13;;;;;;;;;;5102851;28;24528;-46
2022/07/21 04:12:09;;;;;;;8.63;7.90;;;;;;;;;;5104000;28;24421;-46
2022/07/21 04:14:34;;;;;;;8.80;8.00;;;;;;;;;;5093078;28;24457;-46
2022/07/21 04:17:00;;;;;;;9.20;8.30;;;;;;;;;;5099549;28;25004;-46
2022/07/21 04:19:25;;;;;;;10.53;9.30;;;;;;;;;;5092983;28;24995;-46
2022/07/21 04:21:50;;;;;;;8.60;7.80;;;;;;;;;;5095616;28;24432;-46
2022/07/21 04:24:15;;;;;;;8.68;7.88;;;;;;;;;;5092773;28;24796;-46
2022/07/21 04:26:40;;;;;;;9.50;7.30;;;;;;;;;;5098884;28;24505;-47
2022/07/21 04:29:07;;;;;;;8.40;7.70;;;;;;;;;;5100118;28;24483;-46
2022/07/21 04:31:32;;;;;;;9.20;8.20;;;;;;;;;;5095703;28;24418;-46
2022/07/21 04:33:57;;;;;;;9.20;8.30;;;;;;;;;;5100737;28;24432;-46
2022/07/21 04:36:22;;;;;;;9.07;8.00;;;;;;;;;;5097831;28;24418;-46
2022/07/21 04:38:48;;;;;;;9.65;8.23;;;;;;;;;;5104377;28;25090;-46
2022/07/21 04:41:13;;;;;;;9.57;8.68;;;;;;;;;;5100694;28;24509;-45
2022/07/21 04:43:38;;;;;;;9.50;8.60;;;;;;;;;;5089998;28;24978;-46
2022/07/21 04:46:03;;;;;;;10.10;9.13;;;;;;;;;;5104153;27;24417;-47
2022/07/21 04:48:28;;;;;;;8.95;7.88;;;;;;;;;;5105551;28;24818;-46
2022/07/21 04:50:54;;;;;;;8.50;7.68;;;;;;;;;;5097623;28;24461;-46
2022/07/21 04:53:19;;;;;;;13.35;9.70;;;;;;;;;;5091682;28;24437;-46
2022/07/21 04:55:45;;;;;;;10.23;9.23;;;;;;;;;;5098280;28;24432;-46
2022/07/21 04:58:10;;;;;;;9.70;8.90;;;;;;;;;;5093651;28;24421;-47
2022/07/21 05:00:35;;;;;;;9.13;8.37;;;;;;;;;;5097625;27;25026;-46
2022/07/21 05:03:01;;;;;;;9.30;8.50;;;;;;;;;;5094056;27;24437;-46
2022/07/21 05:05:26;;;;;;;8.80;8.10;;;;;;;;;;5105702;27;24533;-44
2022/07/21 05:07:51;;;;;;;9.20;8.20;;;;;;;;;;5104155;27;25043;-45
2022/07/21 05:10:18;;;;;;;9.53;8.73;;;;;;;;;;5091815;27;24512;-45
2022/07/21 05:12:43;;;;;;;9.25;8.35;;;;;;;;;;5090311;27;24426;-45
2022/07/21 05:15:10;;;;;;;9.20;8.40;;;;;;;;;;5100445;28;24426;-45
2022/07/21 05:17:36;;;;;;;9.25;8.43;;;;;;;;;;5089755;27;24412;-46
2022/07/21 05:20:01;;;;;;;9.93;8.93;;;;;;;;;;5104429;27;24430;-46
2022/07/21 05:22:26;;;;;;;9.03;8.17;;;;;;;;;;5094446;28;24456;-46
2022/07/21 05:24:51;;;;;;;9.10;8.30;;;;;;;;;;5100223;28;24563;-46
2022/07/21 05:27:16;;;;;;;8.60;7.80;;;;;;;;;;5090115;28;24665;-45
2022/07/21 05:29:41;;;;;;;8.90;8.10;;;;;;;;;;5090969;28;24468;-45
2022/07/21 05:32:07;;;;;;;8.43;7.72;;;;;;;;;;5097135;27;24426;-46
2022/07/21 05:34:32;;;;;;;8.50;7.80;;;;;;;;;;5098080;28;24567;-46
2022/07/21 05:36:57;;;;;;;8.70;7.80;;;;;;;;;;5097069;28;24421;-45
2022/07/21 05:39:22;;;;;;;8.18;7.32;;;;;;;;;;5098828;27;24456;-45
2022/07/21 05:41:47;;;;;;;8.10;7.50;;;;;;;;;;5101469;28;24425;-45
2022/07/21 05:44:12;;;;;;;8.18;7.50;;;;;;;;;;5094764;27;24477;-46
2022/07/21 05:46:38;;;;;;;9.90;7.80;;;;;;;;;;5093631;27;24829;-46
2022/07/21 05:49:03;;;;;;;8.27;7.47;;;;;;;;;;5100915;27;24457;-47
2022/07/21 05:51:28;;;;;;;8.20;7.50;;;;;;;;;;5101966;28;25206;-46
2022/07/21 05:53:53;;;;;;;10.50;7.80;;;;;;;;;;5096103;28;24449;-47
2022/07/21 05:56:18;;;;;;;7.97;7.30;;;;;;;;;;5093889;28;24420;-46
2022/07/21 05:58:44;;;;;;;7.30;6.70;;;;;;;;;;5093566;28;24418;-46
2022/07/21 06:01:09;;;;;;;7.30;6.70;;;;;;;;;;5090508;28;24437;-46
2022/07/21 06:03:38;;;;;;;8.63;7.83;;;;;;;;;;5092126;27;24545;-46
2022/07/21 06:06:03;;;;;;;7.10;6.70;;;;;;;;;;5088711;28;24877;-46
2022/07/21 06:08:29;;;;;;;8.50;7.70;;;;;;;;;;5093575;28;24785;-46
2022/07/21 06:10:54;;;;;;;7.77;7.20;;;;;;;;;;5090327;28;24479;-46
2022/07/21 06:13:19;;;;;;;7.70;7.20;;;;;;;;;;5101926;28;24418;-46
2022/07/21 06:15:44;;;;;;;7.10;6.50;;;;;;;;;;5084940;28;25025;-46
2022/07/21 06:18:09;;;;;;;8.38;7.55;;;;;;;;;;5099073;28;24504;-45
2022/07/21 06:20:34;;;;;;;8.65;7.95;;;;;;;;;;5104588;28;24434;-46
2022/07/21 06:23:00;;;;;;;8.47;7.77;;;;;;;;;;5087381;28;24438;-45
2022/07/21 06:25:25;;;;;;;8.52;7.80;;;;;;;;;;5088999;27;24425;-46
2022/07/21 06:27:50;;;;;;;9.40;8.50;;;;;;;;;;5094110;28;24510;-46
2022/07/21 06:30:15;;;;;;;8.55;7.88;;;;;;;;;;5086990;28;24417;-46
2022/07/21 06:32:40;;;;;;;8.80;8.20;;;;;;;;;;5098965;28;24491;-46
2022/07/21 06:35:06;;;;;;;8.68;7.97;;;;;;;;;;5100456;28;24444;-46
2022/07/21 06:37:31;;;;;;;9.53;8.63;;;;;;;;;;5092581;28;24429;-46
2022/07/21 06:39:56;;;;;;;9.70;9.00;;;;;;;;;;5106115;28;24465;-46
2022/07/21 06:42:21;;;;;;;8.70;8.00;;;;;;;;;;5100410;28;24425;-45
2022/07/21 06:44:46;;;;;;;8.13;7.50;;;;;;;;;;5106748;28;24393;-45
2022/07/21 06:47:12;;;;;;;8.43;7.83;;;;;;;;;;5104988;28;24433;-46
2022/07/21 06:49:37;;;;;;;8.35;7.75;;;;;;;;;;5107353;28;24951;-46
2022/07/21 06:52:02;;;;;;;8.80;8.10;;;;;;;;;;5107171;28;24939;-45
2022/07/21 06:54:27;;;;;;;9.13;8.40;;;;;;;;;;5104466;28;24428;-45
2022/07/21 06:56:52;;;;;;;9.18;8.38;;;;;;;;;;5107090;28;24393;-46
2022/07/21 06:59:17;;;;;;;8.45;7.85;;;;;;;;;;5119822;27;24397;-46
2022/07/21 07:01:43;;;;;;;8.70;8.00;;;;;;;;;;5127652;27;24412;-46
2022/07/21 07:04:08;;;;;;;8.40;7.80;;;;;;;;;;5110485;27;24516;-47
2022/07/21 07:06:33;;;;;;;8.90;8.10;;;;;;;;;;5106560;28;24400;-45
2022/07/21 07:08:58;;;;;;;9.07;8.35;;;;;;;;;;5107293;28;25258;-46
2022/07/21 07:11:23;;;;;;;9.07;8.27;;;;;;;;;;5106764;28;24436;-46
2022/07/21 07:13:48;;;;;;;9.40;8.70;;;;;;;;;;5104483;28;24414;-46
2022/07/21 07:16:13;;;;;;;8.80;8.20;;;;;;;;;;5106539;28;24845;-46
2022/07/21 07:18:39;;;;;;;8.52;7.90;;;;;;;;;;5106745;28;24459;-48
2022/07/21 07:21:04;;;;;;;9.80;8.90;;;;;;;;;;5106595;28;24405;-46
2022/07/21 07:23:29;;;;;;;8.80;8.00;;;;;;;;;;5106451;28;24453;-45
2022/07/21 07:25:54;;;;;;;9.30;8.60;;;;;;;;;;5100058;28;24420;-44
2022/07/21 07:28:19;;;;;;;9.43;8.73;;;;;;;;;;5106383;28;24814;-45
2022/07/21 07:30:44;;;;;;;8.88;8.27;;;;;;;;;;5106595;28;24390;-46
2022/07/21 07:33:10;;;;;;;9.40;8.70;;;;;;;;;;5106436;28;24930;-45
2022/07/21 07:35:35;;;;;;;9.43;8.73;;;;;;;;;;5101531;28;24529;-46
2022/07/21 07:38:00;;;;;;;9.57;8.77;;;;;;;;;;5100787;28;24869;-46
2022/07/21 07:40:25;;;;;;;9.35;8.52;;;;;;;;;;5106154;28;24485;-46
2022/07/21 07:42:51;;;;;;;9.80;8.90;;;;;;;;;;5086818;28;24437;-46
2022/07/21 07:45:16;;;;;;;9.50;8.80;;;;;;;;;;5097597;28;24508;-46
2022/07/21 07:47:41;;;;;;;8.70;8.00;;;;;;;;;;5087076;28;24425;-46
2022/07/21 07:50:11;;;;;;;8.60;8.00;;;;;;;;;;5085779;28;24749;-46
2022/07/21 07:52:37;;;;;;;8.40;7.80;;;;;;;;;;5085033;28;24532;-46
2022/07/21 07:55:06;;;;;;;9.40;8.50;;;;;;;;;;5085743;28;25051;-46
2022/07/21 07:57:31;;;;;;;10.00;9.10;;;;;;;;;;5101441;28;24417;-46
2022/07/21 07:59:56;;;;;;;9.80;9.00;;;;;;;;;;5106443;28;24478;-47
2022/07/21 08:02:22;;;;;;;9.95;9.25;;;;;;;;;;5084726;28;25034;-46
2022/07/21 08:04:47;;;;;;;10.20;9.20;;;;;;;;;;5085456;28;24508;-47
2022/07/21 08:07:12;;;;;;;9.93;8.95;;;;;;;;;;5083538;28;24422;-46
2022/07/21 08:09:38;;;;;;;9.63;8.90;;;;;;;;;;5086279;28;24390;-46
2022/07/21 08:12:04;;;;;;;9.97;9.07;;;;;;;;;;5083273;28;24429;-47
2022/07/21 08:14:29;;;;;;;10.10;9.40;;;;;;;;;;5084596;28;24478;-47
2022/07/21 08:16:55;;;;;;;10.03;9.13;;;;;;;;;;5097136;28;24433;-46
2022/07/21 08:19:20;;;;;;;10.00;9.20;;;;;;;;;;5108591;28;25232;-46
2022/07/21 08:21:45;;;;;;;9.57;8.77;;;;;;;;;;5090789;28;24479;-45
2022/07/21 08:24:10;;;;;;;9.73;9.02;;;;;;;;;;5087613;28;24413;-46
2022/07/21 08:26:35;;;;;;;9.48;8.80;;;;;;;;;;5104442;27;24441;-46
2022/07/21 08:29:00;;;;;;;10.00;9.20;;;;;;;;;;5088513;28;24431;-46
2022/07/21 08:31:25;;;;;;;9.80;9.10;;;;;;;;;;5086996;28;25049;-46
2022/07/21 08:33:51;;;;;;;9.77;8.87;;;;;;;;;;5089647;28;24478;-45
2022/07/21 08:36:16;;;;;;;10.10;9.30;;;;;;;;;;5086714;28;25045;-45
2022/07/21 08:38:42;;;;;;;9.43;8.73;;;;;;;;;;5090380;28;24406;-45
2022/07/21 08:41:08;;;;;;;9.10;8.50;;;;;;;;;;5086670;28;24425;-46
2022/07/21 08:43:33;;;;;;;9.23;8.55;;;;;;;;;;5088667;28;25058;-46
2022/07/21 08:45:59;;;;;;;9.30;8.60;;;;;;;;;;5102730;28;24777;-46
2022/07/21 08:48:24;;;;;;;10.10;8.70;;;;;;;;;;5109785;28;24720;-46
2022/07/21 08:50:49;;;;;;;10.05;9.30;;;;;;;;;;5089721;28;24467;-46
2022/07/21 08:53:15;;;;;;;9.63;8.93;;;;;;;;;;5087086;28;24432;-46
2022/07/21 08:55:40;;;;;;;9.90;9.00;;;;;;;;;;5097677;28;24520;-46
2022/07/21 08:58:07;;;;;;;9.20;8.60;;;;;;;;;;5107332;28;24409;-46
2022/07/21 09:00:34;;;;;;;9.68;9.07;;;;;;;;;;5087882;28;22346;-46
2022/07/21 09:03:18;;;;;;;10.20;9.40;;;;;;;;;;5089116;28;24410;-45
2022/07/21 09:05:58;;;;;;;9.70;9.00;;;;;;;;;;5105909;28;24505;-46
2022/07/21 09:08:36;;;;;;;9.00;8.30;;;;;;;;;;5105797;28;24922;-45
2022/07/21 09:11:11;;;;;;;9.00;8.30;;;;;;;;;;5086287;28;24432;-46
2022/07/21 09:13:37;;;;;;;9.20;8.30;;;;;;;;;;5087291;28;24430;-46
2022/07/21 09:16:02;;;;;;;8.70;8.00;;;;;;;;;;5092660;28;25044;-46
2022/07/21 09:18:28;;;;;;;9.00;8.40;;;;;;;;;;5092832;28;24972;-46
2022/07/21 09:20:53;;;;;;;8.57;7.97;;;;;;;;;;5087272;28;24449;-46
2022/07/21 09:23:20;;;;;;;9.10;8.30;;;;;;;;;;5087284;28;24426;-46
2022/07/21 09:25:46;;;;;;;8.80;8.20;;;;;;;;;;5088676;28;24405;-46
2022/07/21 09:28:11;;;;;;;9.20;8.50;;;;;;;;;;5087530;28;24418;-47
2022/07/21 09:30:49;;;;;;;9.13;8.43;;;;;;;;;;5085789;28;24424;-46
2022/07/21 09:33:19;;;;;;;8.90;8.20;;;;;;;;;;5085854;28;24570;-46
2022/07/21 09:35:54;;;;;;;9.00;8.30;;;;;;;;;;5104008;28;24428;-46
2022/07/21 09:38:19;;;;;;;8.07;7.47;;;;;;;;;;5098140;28;24453;-46
2022/07/21 09:40:47;;;;;;;8.95;8.18;;;;;;;;;;5092618;28;25223;-46
2022/07/21 09:43:27;;;;;;;9.02;8.32;;;;;;;;;;5095332;28;24423;-46
2022/07/21 09:45:53;;;;;;;9.50;8.70;;;;;;;;;;5086429;28;24928;-46
2022/07/21 09:48:30;;;;;;;9.70;8.90;;;;;;;;;;5085592;28;24504;-46
2022/07/21 09:50:56;;;;;;;9.27;8.57;;;;;;;;;;5087993;28;24530;-46
2022/07/21 09:53:21;;;;;;;9.20;8.60;;;;;;;;;;5091505;28;24441;-45
2022/07/21 09:55:46;;;;;;;9.10;8.40;;;;;;;;;;5087263;28;24402;-44
2022/07/21 09:58:11;;;;;;;9.25;8.55;;;;;;;;;;5099174;28;24513;-45
2022/07/21 10:00:37;;;;;;;8.70;8.10;;;;;;;;;;5107260;28;24425;-46
2022/07/21 10:03:03;;;;;;;8.70;8.20;;;;;;;;;;5106171;28;24432;-46
2022/07/21 10:05:28;;;;;;;9.20;8.50;;;;;;;;;;5102702;28;24418;-45
2022/07/21 10:07:54;;;;;;;10.10;9.10;;;;;;;;;;5086952;28;24499;-46
2022/07/21 10:10:19;;;;;;;9.60;8.90;;;;;;;;;;5085997;28;24402;-46
2022/07/21 10:12:45;;;;;;;10.15;8.80;;;;;;;;;;5087099;28;24426;-46
2022/07/21 10:15:10;;;;;;;9.40;8.60;;;;;;;;;;5102197;28;24748;-46
2022/07/21 10:17:35;;;;;;;7.80;7.30;;;;;;;;;;5100560;28;24437;-46
2022/07/21 10:20:01;;;;;;;8.10;7.50;;;;;;;;;;5106571;28;24445;-46
2022/07/21 10:22:45;;;;;;;7.10;6.50;;;;;;;;;;5099095;28;24513;-46
2022/07/21 10:25:10;;;;;;;8.13;7.53;;;;;;;;;;5086221;28;24418;-46
2022/07/21 10:27:36;;;;;;;8.40;7.80;;;;;;;;;;5086202;28;25380;-50
2022/07/21 10:30:05;;;;;;;7.80;7.30;;;;;;;;;;5085180;28;24992;-46
2022/07/21 10:32:30;;;;;;;8.90;8.10;;;;;;;;;;5086106;28;25205;-47
2022/07/21 10:34:56;;;;;;;7.57;6.97;;;;;;;;;;5087485;28;24426;-47
2022/07/21 10:37:39;;;;;;;8.43;7.72;;;;;;;;;;5088710;28;24476;-46
2022/07/21 10:40:32;;;;;;;8.10;7.40;;;;;;;;;;5107357;28;24409;-46
2022/07/21 10:43:00;;;;;;;7.65;7.05;;;;;;;;;;5107162;28;24451;-45
2022/07/21 10:45:34;;;;;;;7.47;6.97;;;;;;;;;;5107329;28;24512;-46
2022/07/21 10:48:01;;;;;;;7.57;6.88;;;;;;;;;;5106297;28;24419;-46
2022/07/21 10:50:30;;;;;;;6.90;6.40;;;;;;;;;;5106920;28;24430;-46
2022/07/21 10:52:59;;;;;;;6.60;6.20;;;;;;;;;;5107193;28;24416;-46
2022/07/21 10:55:26;;;;;;;6.47;5.97;;;;;;;;;;5106973;28;24468;-46
2022/07/21 10:58:13;;;;;;;6.43;5.95;;;;;;;;;;5104433;28;24411;-46
2022/07/21 11:00:43;;;;;;;6.30;5.90;;;;;;;;;;5086542;28;24508;-46
2022/07/21 11:03:13;;;;;;;6.75;6.15;;;;;;;;;;5086652;28;24422;-46
2022/07/21 11:05:59;;;;;;;7.10;6.60;;;;;;;;;;5086529;28;24481;-47
2022/07/21 11:08:30;;;;;;;6.18;5.78;;;;;;;;;;5102069;28;24420;-46
2022/07/21 11:11:06;;;;;;;6.97;6.38;;;;;;;;;;5107394;28;24398;-47
2022/07/21 11:13:51;;;;;;;5.97;5.47;;;;;;;;;;5106768;28;24398;-47
2022/07/21 11:16:16;;;;;;;5.43;5.03;;;;;;;;;;5106889;28;24444;-47
2022/07/21 11:18:42;;;;;;;5.30;4.90;;;;;;;;;;5105224;28;24932;-46
2022/07/21 11:21:11;;;;;;;6.13;5.72;;;;;;;;;;5106850;28;24401;-46
2022/07/21 11:23:38;;;;;;;5.90;5.40;;;;;;;;;;5106550;28;24998;-46
2022/07/21 11:26:03;;;;;;;6.53;5.70;;;;;;;;;;5106694;28;24420;-47
2022/07/21 11:28:28;;;;;;;6.47;5.97;;;;;;;;;;5096166;28;24456;-46
2022/07/21 11:31:10;;;;;;;7.50;6.30;;;;;;;;;;5086642;28;24444;-46
2022/07/21 11:33:36;;;;;;;7.28;6.57;;;;;;;;;;5086581;28;24394;-47
2022/07/21 11:36:01;;;;;;;6.43;5.97;;;;;;;;;;5085973;28;24402;-46
2022/07/21 11:38:26;;;;;;;6.53;6.03;;;;;;;;;;5085739;28;24979;-47
2022/07/21 11:40:52;;;;;;;6.60;6.10;;;;;;;;;;5088486;28;24422;-47
2022/07/21 11:43:17;;;;;;;6.77;6.17;;;;;;;;;;5093329;28;24984;-47
2022/07/21 11:45:54;;;;;;;6.70;6.10;;;;;;;;;;5106269;28;24402;-47
2022/07/21 11:48:32;;;;;;;6.90;6.40;;;;;;;;;;5106483;28;24724;-46
2022/07/21 11:51:01;;;;;;;7.65;6.95;;;;;;;;;;5106446;28;24497;-46
2022/07/21 11:53:26;;;;;;;7.40;6.70;;;;;;;;;;5102045;28;24509;-46
2022/07/21 11:55:53;;;;;;;7.23;6.60;;;;;;;;;;5085538;28;24482;-46
2022/07/21 11:58:18;;;;;;;7.10;6.50;;;;;;;;;;5095284;28;24830;-46
2022/07/21 12:00:46;;;;;;;7.00;6.33;;;;;;;;;;5106351;28;24943;-47
2022/07/21 12:03:12;;;;;;;7.53;6.82;;;;;;;;;;5106163;28;24947;-46
2022/07/21 12:05:39;;;;;;;7.80;6.30;;;;;;;;;;5087692;28;24414;-46
2022/07/21 12:08:04;;;;;;;7.20;6.70;;;;;;;;;;5087162;28;24479;-46
2022/07/21 12:10:29;;;;;;;6.83;6.13;;;;;;;;;;5087612;28;24465;-46
2022/07/21 12:13:02;;;;;;;7.50;6.80;;;;;;;;;;5106217;28;24489;-45
2022/07/21 12:15:31;;;;;;;7.00;6.30;;;;;;;;;;5091914;28;24421;-45
2022/07/21 12:17:57;;;;;;;6.50;6.10;;;;;;;;;;5085789;28;24405;-45
2022/07/21 12:20:29;;;;;;;6.37;5.97;;;;;;;;;;5085468;28;24423;-46
2022/07/21 12:22:56;;;;;;;7.03;6.43;;;;;;;;;;5103733;28;24441;-45
2022/07/21 12:25:34;;;;;;;6.45;5.95;;;;;;;;;;5105888;28;25053;-45
2022/07/21 12:28:01;;;;;;;6.70;6.20;;;;;;;;;;5106294;28;24401;-46
2022/07/21 12:30:46;;;;;;;6.93;6.43;;;;;;;;;;5105707;28;24435;-44
2022/07/21 12:33:12;;;;;;;6.55;6.05;;;;;;;;;;5103273;28;24418;-45
2022/07/21 12:35:41;;;;;;;6.65;6.15;;;;;;;;;;5105176;28;24394;-45
2022/07/21 12:38:11;;;;;;;6.93;6.43;;;;;;;;;;5094846;28;24481;-46
2022/07/21 12:40:37;;;;;;;6.40;5.90;;;;;;;;;;5103697;28;24392;-46
2022/07/21 12:43:07;;;;;;;6.50;6.00;;;;;;;;;;5102324;28;24458;-46
2022/07/21 12:45:43;;;;;;;6.57;6.07;;;;;;;;;;5103685;28;24414;-46
2022/07/21 12:48:09;;;;;;;6.40;5.90;;;;;;;;;;5081602;28;24433;-45
2022/07/21 12:50:34;;;;;;;6.53;5.93;;;;;;;;;;5086024;28;24437;-45
2022/07/21 12:52:59;;;;;;;6.10;5.60;;;;;;;;;;5084952;28;24457;-45
2022/07/21 12:55:24;;;;;;;6.30;5.80;;;;;;;;;;5081857;28;25091;-46
2022/07/21 12:57:49;;;;;;;6.40;5.90;;;;;;;;;;5082717;28;24414;-46
2022/07/21 13:00:15;;;;;;;5.80;5.40;;;;;;;;;;5100809;28;24422;-45
2022/07/21 13:02:50;;;;;;;5.70;5.20;;;;;;;;;;5085833;28;24510;-45
2022/07/21 13:05:15;;;;;;;5.53;5.13;;;;;;;;;;5085833;28;24394;-46
2022/07/21 13:07:41;;;;;;;6.00;5.60;;;;;;;;;;5088483;28;25085;-46
2022/07/21 13:10:06;;;;;;;6.97;6.37;;;;;;;;;;5094519;28;24426;-46
2022/07/21 13:12:31;;;;;;;6.50;5.90;;;;;;;;;;5087462;28;24742;-46
2022/07/21 13:14:56;;;;;;;7.18;6.50;;;;;;;;;;5088264;28;24398;-46
2022/07/21 13:17:21;;;;;;;6.85;6.25;;;;;;;;;;5086199;28;24815;-46
2022/07/21 13:19:46;;;;;;;5.70;5.30;;;;;;;;;;5089128;28;24509;-46
2022/07/21 13:22:11;;;;;;;6.00;5.60;;;;;;;;;;5085624;28;24513;-45
2022/07/21 13:24:37;;;;;;;5.90;5.50;;;;;;;;;;5088308;28;24677;-46
2022/07/21 13:27:02;;;;;;;6.50;6.00;;;;;;;;;;5086317;28;24480;-46
2022/07/21 13:29:27;;;;;;;6.80;6.20;;;;;;;;;;5087173;28;24521;-46
2022/07/21 13:31:52;;;;;;;6.25;5.85;;;;;;;;;;5087865;28;24421;-46
2022/07/21 13:34:17;;;;;;;5.28;4.88;;;;;;;;;;5085009;28;24409;-46
2022/07/21 13:36:42;;;;;;;6.30;5.90;;;;;;;;;;5103450;28;25199;-46
2022/07/21 13:39:08;;;;;;;5.95;5.55;;;;;;;;;;5106914;28;24401;-46
2022/07/21 13:41:33;;;;;;;5.73;5.33;;;;;;;;;;5092337;28;24489;-46
2022/07/21 13:43:59;;;;;;;5.67;5.27;;;;;;;;;;5084666;28;25092;-47
2022/07/21 13:46:24;;;;;;;5.72;5.30;;;;;;;;;;5088348;28;24383;-47
2022/07/21 13:48:49;;;;;;;5.80;5.40;;;;;;;;;;5087980;28;24769;-46
2022/07/21 13:51:15;;;;;;;5.60;5.20;;;;;;;;;;5088808;28;24429;-47
2022/07/21 13:53:41;;;;;;;6.15;5.75;;;;;;;;;;5104072;28;24478;-46
2022/07/21 13:56:06;;;;;;;5.80;5.40;;;;;;;;;;5108082;28;24401;-46
2022/07/21 13:58:32;;;;;;;6.27;5.77;;;;;;;;;;5108772;28;24416;-46
2022/07/21 14:00:58;;;;;;;6.10;5.60;;;;;;;;;;5108393;28;25105;-46
2022/07/21 14:03:23;;;;;;;6.33;5.83;;;;;;;;;;5090176;28;24437;-47
2022/07/21 14:05:48;;;;;;;5.53;5.13;;;;;;;;;;5087624;28;24401;-46
2022/07/21 14:08:13;;;;;;;5.80;5.38;;;;;;;;;;5090873;28;24441;-46
2022/07/21 14:10:38;;;;;;;6.10;5.60;;;;;;;;;;5107753;28;24386;-45
2022/07/21 14:13:04;;;;;;;5.80;5.40;;;;;;;;;;5097850;28;25029;-46
2022/07/21 14:15:29;;;;;;;5.65;5.20;;;;;;;;;;5086785;28;24426;-45
2022/07/21 14:17:54;;;;;;;6.00;5.50;;;;;;;;;;5087891;28;24939;-45
2022/07/21 14:20:19;;;;;;;5.90;5.40;;;;;;;;;;5087908;28;24391;-46
2022/07/21 14:22:44;;;;;;;5.97;5.57;;;;;;;;;;5087077;28;24515;-46
2022/07/21 14:25:19;;;;;;;5.50;5.10;;;;;;;;;;5092265;28;24409;-46
2022/07/21 14:27:48;;;;;;;5.10;4.80;;;;;;;;;;5107659;28;24404;-45
2022/07/21 14:30:14;;;;;;;6.00;5.60;;;;;;;;;;5101295;28;24425;-45
2022/07/21 14:32:39;;;;;;;5.63;5.23;;;;;;;;;;5095001;28;24781;-45
2022/07/21 14:35:04;;;;;;;5.90;5.50;;;;;;;;;;5094640;28;24536;-45
2022/07/21 14:37:29;;;;;;;6.10;5.70;;;;;;;;;;5102806;28;24430;-45
2022/07/21 14:39:55;;;;;;;5.55;5.25;;;;;;;;;;5096266;27;24495;-45
2022/07/21 14:42:21;;;;;;;5.70;5.20;;;;;;;;;;5089763;28;24433;-47